Aviation Digital Data Service (ADDS)

Output produced by METARs form (1211 UTC 23 April 2018)
found at http://aviationweather.gov/adds/metars/
 
KLYH 231145Z 2312/2412 05005KT P6SM BKN150 
     FM232300 10011KT 6SM -RA OVC028 
     FM240200 08014KT 5SM -RA BR OVC015 
     FM240300 06012KT 4SM -RA BR OVC007